Time,TemperatureF,DewpointF,PressureIn,WindDirection,WindDirectionDegrees,WindSpeedMPH,WindSpeedGustMPH,Humidity,HourlyPrecipIn,Conditions,Clouds,dailyrainin,SoftwareType,DateUTC
2013-11-12 00:04:00,53.9,47.0,30.15,ESE,107,0.0,2.0,78,0.00,,,0.00,weatherlink.com 1.10,2013-11-12 05:04:00,
2013-11-12 00:19:00,53.4,47.0,30.15,ESE,107,1.0,1.0,78,0.00,,,0.00,weatherlink.com 1.10,2013-11-12 05:19:00,
2013-11-12 00:34:00,53.5,48.0,30.15,ESE,106,2.0,3.0,80,0.00,,,0.00,weatherlink.com 1.10,2013-11-12 05:34:00,
2013-11-12 00:49:00,53.5,48.0,30.14,ESE,106,3.0,3.0,80,0.00,,,0.00,weatherlink.com 1.10,2013-11-12 05:49:00,
2013-11-12 01:04:00,53.6,48.0,30.14,ESE,110,2.0,4.0,80,0.00,,,0.00,weatherlink.com 1.10,2013-11-12 06:04:00,
2013-11-12 01:19:00,53.6,48.0,30.13,ESE,111,3.0,6.0,81,0.00,,,0.00,weatherlink.com 1.10,2013-11-12 06:19:00,
2013-11-12 01:34:00,53.8,47.0,30.13,SE,124,6.0,7.0,78,0.00,,,0.00,weatherlink.com 1.10,2013-11-12 06:34:00,
2013-11-12 01:49:00,54.0,47.0,30.12,ESE,110,3.0,6.0,77,0.00,,,0.00,weatherlink.com 1.10,2013-11-12 06:49:00,
2013-11-12 02:04:00,54.0,47.0,30.12,ESE,116,5.0,6.0,76,0.00,,,0.00,weatherlink.com 1.10,2013-11-12 07:04:00,
2013-11-12 02:19:00,54.1,46.0,30.12,ESE,115,4.0,6.0,75,0.00,,,0.00,weatherlink.com 1.10,2013-11-12 07:19:00,
2013-11-12 02:34:00,53.5,46.0,30.11,East,95,2.0,7.0,77,0.00,,,0.00,weatherlink.com 1.10,2013-11-12 07:34:00,
2013-11-12 02:49:00,53.1,46.0,30.11,ESE,104,3.0,5.0,77,0.00,,,0.00,weatherlink.com 1.10,2013-11-12 07:49:00,
2013-11-12 03:04:00,53.1,46.0,30.11,East,89,2.0,4.0,76,0.00,,,0.00,weatherlink.com 1.10,2013-11-12 08:04:00,
2013-11-12 03:19:00,53.2,45.0,30.10,ESE,104,2.0,4.0,75,0.00,,,0.00,weatherlink.com 1.10,2013-11-12 08:19:00,
2013-11-12 03:34:00,53.2,46.0,30.09,ESE,107,4.0,4.0,76,0.00,,,0.00,weatherlink.com 1.10,2013-11-12 08:34:00,
2013-11-12 03:49:00,52.8,45.0,30.09,East,96,4.0,5.0,76,0.00,,,0.00,weatherlink.com 1.10,2013-11-12 08:49:00,
2013-11-12 04:05:00,53.2,45.0,30.09,East,88,6.0,6.0,75,0.00,,,0.00,weatherlink.com 1.10,2013-11-12 09:05:00,
2013-11-12 04:20:00,52.9,45.0,30.09,ESE,103,4.0,7.0,74,0.00,,,0.00,weatherlink.com 1.10,2013-11-12 09:20:00,
2013-11-12 04:35:00,53.2,45.0,30.09,ESE,119,5.0,7.0,74,0.00,,,0.00,weatherlink.com 1.10,2013-11-12 09:35:00,
2013-11-12 04:50:00,53.1,46.0,30.09,ESE,107,3.0,7.0,77,0.00,,,0.00,weatherlink.com 1.10,2013-11-12 09:50:00,
2013-11-12 05:05:00,53.4,47.0,30.09,ESE,105,5.0,5.0,80,0.00,,,0.00,weatherlink.com 1.10,2013-11-12 10:05:00,
2013-11-12 05:20:00,53.9,47.0,30.09,East,98,3.0,8.0,78,0.00,,,0.00,weatherlink.com 1.10,2013-11-12 10:20:00,
2013-11-12 05:35:00,53.4,46.0,30.09,East,89,4.0,6.0,77,0.00,,,0.00,weatherlink.com 1.10,2013-11-12 10:35:00,
2013-11-12 05:50:00,53.5,47.0,30.09,ESE,110,5.0,6.0,78,0.00,,,0.00,weatherlink.com 1.10,2013-11-12 10:50:00,
2013-11-12 06:05:00,53.6,47.0,30.09,ESE,120,8.0,8.0,79,0.00,,,0.00,weatherlink.com 1.10,2013-11-12 11:05:00,
2013-11-12 06:20:00,53.9,47.0,30.10,ESE,108,5.0,9.0,78,0.00,,,0.00,weatherlink.com 1.10,2013-11-12 11:20:00,
2013-11-12 06:35:00,53.8,47.0,30.09,ESE,117,6.0,8.0,79,0.00,,,0.00,weatherlink.com 1.10,2013-11-12 11:35:00,
2013-11-12 06:50:00,53.8,48.0,30.09,ESE,108,5.0,8.0,80,0.00,,,0.00,weatherlink.com 1.10,2013-11-12 11:50:00,
2013-11-12 07:05:00,54.2,47.0,30.10,ESE,110,6.0,10.0,78,0.00,,,0.00,weatherlink.com 1.10,2013-11-12 12:05:00,
2013-11-12 07:20:00,54.9,47.0,30.10,East,101,5.0,10.0,76,0.00,,,0.00,weatherlink.com 1.10,2013-11-12 12:20:00,
2013-11-12 07:35:00,55.0,47.0,30.10,ESE,104,3.0,7.0,75,0.00,,,0.00,weatherlink.com 1.10,2013-11-12 12:35:00,
2013-11-12 07:50:00,55.8,48.0,30.10,ESE,117,3.0,9.0,74,0.00,,,0.00,weatherlink.com 1.10,2013-11-12 12:50:00,
2013-11-12 08:05:00,56.6,48.0,30.09,ESE,113,4.0,8.0,72,0.00,,,0.00,weatherlink.com 1.10,2013-11-12 13:05:00,
2013-11-12 08:20:00,57.0,47.0,30.09,East,90,6.0,8.0,70,0.00,,,0.00,weatherlink.com 1.10,2013-11-12 13:20:00,
2013-11-12 08:35:00,57.3,47.0,30.09,SE,124,7.0,9.0,69,0.00,,,0.00,weatherlink.com 1.10,2013-11-12 13:35:00,
2013-11-12 08:50:00,57.8,47.0,30.09,ESE,120,4.0,10.0,67,0.00,,,0.00,weatherlink.com 1.10,2013-11-12 13:50:00,
2013-11-12 09:05:00,58.1,46.0,30.08,ESE,113,7.0,10.0,64,0.00,,,0.00,weatherlink.com 1.10,2013-11-12 14:05:00,
2013-11-12 09:20:00,58.2,46.0,30.09,East,98,9.0,13.0,64,0.00,,,0.00,weatherlink.com 1.10,2013-11-12 14:20:00,
2013-11-12 09:35:00,58.6,45.0,30.09,SE,126,12.0,15.0,61,0.00,,,0.00,weatherlink.com 1.10,2013-11-12 14:35:00,
2013-11-12 09:50:00,58.4,47.0,30.08,ESE,115,12.0,14.0,65,0.00,,,0.00,weatherlink.com 1.10,2013-11-12 14:50:00,
2013-11-12 10:05:00,58.5,46.0,30.08,ESE,115,8.0,15.0,64,0.00,,,0.00,weatherlink.com 1.10,2013-11-12 15:05:00,
2013-11-12 10:20:00,58.7,46.0,30.08,ESE,120,9.0,16.0,62,0.00,,,0.00,weatherlink.com 1.10,2013-11-12 15:20:00,
2013-11-12 10:35:00,59.0,46.0,30.08,ESE,122,14.0,15.0,63,0.00,,,0.00,weatherlink.com 1.10,2013-11-12 15:35:00,
2013-11-12 10:50:00,58.8,45.0,30.07,SE,129,14.0,17.0,61,0.00,,,0.00,weatherlink.com 1.10,2013-11-12 15:50:00,
2013-11-12 11:05:00,58.8,46.0,30.07,SE,127,9.0,17.0,63,0.00,,,0.00,weatherlink.com 1.10,2013-11-12 16:05:00,
2013-11-12 11:20:00,59.2,47.0,30.06,ESE,120,9.0,15.0,64,0.00,,,0.00,weatherlink.com 1.10,2013-11-12 16:20:00,
2013-11-12 11:35:00,58.4,47.0,30.05,ESE,122,8.0,19.0,65,0.00,,,0.00,weatherlink.com 1.10,2013-11-12 16:35:00,
2013-11-12 11:50:00,58.2,46.0,30.04,ESE,122,12.0,15.0,64,0.00,,,0.00,weatherlink.com 1.10,2013-11-12 16:50:00,
2013-11-12 12:05:00,58.8,49.0,30.04,SE,124,5.0,13.0,70,0.00,,,0.00,weatherlink.com 1.10,2013-11-12 17:05:00,
2013-11-12 12:20:00,59.0,49.0,30.04,ESE,121,8.0,13.0,70,0.00,,,0.00,weatherlink.com 1.10,2013-11-12 17:20:00,
2013-11-12 12:35:00,59.2,49.0,30.04,SE,131,7.0,12.0,70,0.00,,,0.00,weatherlink.com 1.10,2013-11-12 17:35:00,
2013-11-12 12:50:00,59.5,51.0,30.04,SE,136,8.0,11.0,74,0.00,,,0.00,weatherlink.com 1.10,2013-11-12 17:50:00,
2013-11-12 13:05:00,59.6,49.0,30.04,South,169,10.0,15.0,69,0.00,,,0.00,weatherlink.com 1.10,2013-11-12 18:05:00,
2013-11-12 13:20:00,59.8,47.0,30.04,SSW,210,17.0,23.0,64,0.00,,,0.00,weatherlink.com 1.10,2013-11-12 18:20:00,
2013-11-12 13:35:00,57.6,44.0,30.04,SSW,212,22.0,29.0,62,0.00,,,0.00,weatherlink.com 1.10,2013-11-12 18:35:00,
2013-11-12 13:50:00,57.0,46.0,30.04,WSW,238,22.0,28.0,66,0.00,,,0.00,weatherlink.com 1.10,2013-11-12 18:50:00,
2013-11-12 14:06:00,57.2,47.0,30.05,SSW,206,21.0,26.0,69,0.00,,,0.00,weatherlink.com 1.10,2013-11-12 19:06:00,
2013-11-12 14:21:00,57.3,47.0,30.05,South,191,15.0,31.0,68,0.00,,,0.00,weatherlink.com 1.10,2013-11-12 19:21:00,
2013-11-12 14:36:00,57.6,47.0,30.05,SSW,210,17.0,26.0,68,0.00,,,0.00,weatherlink.com 1.10,2013-11-12 19:36:00,
2013-11-12 14:51:00,57.2,47.0,30.05,South,191,12.0,30.0,69,0.00,,,0.00,weatherlink.com 1.10,2013-11-12 19:51:00,
2013-11-12 15:06:00,54.9,49.0,30.07,SSW,195,32.0,33.0,79,0.00,,,0.00,weatherlink.com 1.10,2013-11-12 20:06:00,
2013-11-12 15:21:00,53.2,48.0,30.08,SSW,204,18.0,33.0,81,0.00,,,0.00,weatherlink.com 1.10,2013-11-12 20:21:00,
2013-11-12 15:36:00,52.3,48.0,30.09,SSW,197,15.0,35.0,84,0.00,,,0.00,weatherlink.com 1.10,2013-11-12 20:36:00,
2013-11-12 15:51:00,51.3,47.0,30.09,SSW,205,23.0,34.0,84,0.00,,,0.00,weatherlink.com 1.10,2013-11-12 20:51:00,
2013-11-12 16:06:00,50.5,46.0,30.10,SSW,210,25.0,34.0,84,0.00,,,0.00,weatherlink.com 1.10,2013-11-12 21:06:00,
2013-11-12 16:21:00,49.8,45.0,30.11,SSW,198,24.0,36.0,82,0.00,,,0.00,weatherlink.com 1.10,2013-11-12 21:21:00,
2013-11-12 16:36:00,49.5,44.0,30.12,SSW,193,23.0,39.0,82,0.00,,,0.00,weatherlink.com 1.10,2013-11-12 21:36:00,
2013-11-12 16:51:00,49.0,43.0,30.12,SW,218,21.0,38.0,80,0.00,,,0.00,weatherlink.com 1.10,2013-11-12 21:51:00,
2013-11-12 17:06:00,48.6,42.0,30.12,SW,219,19.0,39.0,79,0.00,,,0.00,weatherlink.com 1.10,2013-11-12 22:06:00,
2013-11-12 17:21:00,48.4,42.0,30.13,SSW,205,28.0,40.0,79,0.00,,,0.00,weatherlink.com 1.10,2013-11-12 22:21:00,
2013-11-12 17:36:00,48.2,43.0,30.14,South,176,14.0,34.0,81,0.00,,,0.00,weatherlink.com 1.10,2013-11-12 22:36:00,
2013-11-12 17:51:00,47.8,42.0,30.15,SW,214,26.0,36.0,80,0.00,,,0.00,weatherlink.com 1.10,2013-11-12 22:51:00,
2013-11-12 18:06:00,47.3,41.0,30.16,South,181,26.0,35.0,79,0.00,,,0.00,weatherlink.com 1.10,2013-11-12 23:06:00,
2013-11-12 18:21:00,46.9,40.0,30.17,SW,220,21.0,39.0,77,0.00,,,0.00,weatherlink.com 1.10,2013-11-12 23:21:00,
2013-11-12 18:36:00,46.7,40.0,30.18,SSW,205,22.0,36.0,77,0.00,,,0.00,weatherlink.com 1.10,2013-11-12 23:36:00,
2013-11-12 18:51:00,46.4,40.0,30.19,SW,225,27.0,35.0,78,0.00,,,0.00,weatherlink.com 1.10,2013-11-12 23:51:00,
2013-11-12 19:07:00,46.2,39.0,30.19,SSE,147,17.0,34.0,77,0.00,,,0.00,weatherlink.com 1.10,2013-11-13 00:07:00,
2013-11-12 19:21:00,45.8,38.0,30.19,SSW,200,14.0,37.0,74,0.00,,,0.00,weatherlink.com 1.10,2013-11-13 00:21:00,
2013-11-12 19:36:00,45.6,39.0,30.20,SW,219,27.0,38.0,77,0.00,,,0.00,weatherlink.com 1.10,2013-11-13 00:36:00,
2013-11-12 19:51:00,45.4,38.0,30.20,SSW,203,21.0,33.0,75,0.00,,,0.00,weatherlink.com 1.10,2013-11-13 00:51:00,
2013-11-12 20:06:00,45.1,38.0,30.21,SW,219,22.0,36.0,75,0.00,,,0.00,weatherlink.com 1.10,2013-11-13 01:06:00,
2013-11-12 20:21:00,45.0,37.0,30.22,South,172,18.0,36.0,74,0.00,,,0.00,weatherlink.com 1.10,2013-11-13 01:21:00,
2013-11-12 20:37:00,45.1,37.0,30.22,SSW,204,18.0,32.0,74,0.00,,,0.00,weatherlink.com 1.10,2013-11-13 01:37:00,
2013-11-12 20:52:00,45.0,37.0,30.23,South,188,21.0,37.0,73,0.00,,,0.00,weatherlink.com 1.10,2013-11-13 01:52:00,
2013-11-12 21:07:00,45.1,39.0,30.24,South,187,17.0,31.0,79,0.00,,,0.00,weatherlink.com 1.10,2013-11-13 02:07:00,
2013-11-12 21:22:00,43.8,39.0,30.25,SSW,194,21.0,37.0,82,0.00,,,0.00,weatherlink.com 1.10,2013-11-13 02:22:00,
2013-11-12 21:37:00,43.6,39.0,30.25,SSE,147,17.0,34.0,83,0.00,,,0.00,weatherlink.com 1.10,2013-11-13 02:37:00,
2013-11-12 21:52:00,43.4,39.0,30.25,SSW,207,20.0,33.0,83,0.00,,,0.00,weatherlink.com 1.10,2013-11-13 02:52:00,
2013-11-12 22:07:00,42.3,39.0,30.27,South,174,13.0,31.0,87,0.00,,,0.00,weatherlink.com 1.10,2013-11-13 03:07:00,
2013-11-12 22:22:00,41.6,38.0,30.27,SSE,147,32.0,36.0,87,0.00,,,0.00,weatherlink.com 1.10,2013-11-13 03:22:00,
2013-11-12 22:37:00,41.6,38.0,30.27,SSE,158,19.0,37.0,86,0.00,,,0.00,weatherlink.com 1.10,2013-11-13 03:37:00,
2013-11-12 22:52:00,41.9,37.0,30.27,SE,144,19.0,32.0,84,0.00,,,0.00,weatherlink.com 1.10,2013-11-13 03:52:00,
2013-11-12 23:07:00,41.9,37.0,30.27,SSW,203,19.0,32.0,82,0.00,,,0.00,weatherlink.com 1.10,2013-11-13 04:07:00,
2013-11-12 23:22:00,41.2,37.0,30.27,SSW,195,19.0,33.0,84,0.00,,,0.00,weatherlink.com 1.10,2013-11-13 04:22:00,
2013-11-12 23:37:00,41.5,37.0,30.28,SSW,192,17.0,32.0,85,0.00,,,0.00,weatherlink.com 1.10,2013-11-13 04:37:00,
2013-11-12 23:52:00,41.7,37.0,30.27,South,182,14.0,36.0,83,0.00,,,0.00,weatherlink.com 1.10,2013-11-13 04:52:00,